Time;durP1;ratioP1;P1;durP2;ratioP2;P2;SDS_P1;SDS_P2;PMS_P1;PMS_P2;Temp;Humidity;BMP_temperature;BMP_pressure;BME280_temperature;BME280_humidity;BME280_pressure;Samples;Min_cycle;Max_cycle;Signal;HPM_P1;HPM_P2
2021/10/01 00:01:43;;;;;;;2.23;1.60;;;5.90;99.90;5.80;101587.00;;;;4977431;28;93089;-63
2021/10/01 00:04:09;;;;;;;1.00;0.90;;;5.90;99.90;5.70;101576.00;;;;4962808;28;82848;-64
2021/10/01 00:06:35;;;;;;;2.83;1.57;;;5.90;99.90;5.70;101586.00;;;;4968112;28;90169;-64
2021/10/01 00:09:01;;;;;;;3.80;1.43;;;5.90;99.90;5.70;101579.00;;;;4976800;28;112513;-64
2021/10/01 00:11:26;;;;;;;1.60;1.23;;;5.90;99.90;5.70;101582.00;;;;4973236;28;110488;-64
2021/10/01 00:13:52;;;;;;;2.97;1.47;;;5.90;99.90;5.70;101583.00;;;;4968257;28;108912;-66
2021/10/01 00:16:18;;;;;;;1.17;1.07;;;5.90;99.90;5.70;101584.00;;;;4975913;28;112501;-65
2021/10/01 00:18:44;;;;;;;1.73;1.27;;;5.80;99.90;5.70;101581.00;;;;4978592;28;82783;-65
2021/10/01 00:21:11;;;;;;;2.47;1.37;;;5.90;99.90;5.70;101576.00;;;;4969738;28;110750;-65
2021/10/01 00:23:36;;;;;;;2.57;1.50;;;5.80;99.90;5.70;101573.00;;;;4962441;28;82726;-65
2021/10/01 00:26:03;;;;;;;1.53;1.27;;;5.80;99.90;5.70;101572.00;;;;4958188;28;82913;-65
2021/10/01 00:28:29;;;;;;;1.50;1.40;;;5.80;99.90;5.70;101567.00;;;;4941701;28;82830;-66
2021/10/01 00:30:56;;;;;;;1.23;1.13;;;5.80;99.90;5.70;101569.00;;;;4964672;28;109172;-65
2021/10/01 00:33:22;;;;;;;1.33;1.23;;;5.80;99.90;5.60;101571.00;;;;4978608;28;83011;-65
2021/10/01 00:35:48;;;;;;;3.80;1.37;;;5.80;99.90;5.60;101560.00;;;;4962412;28;82778;-65
2021/10/01 00:38:14;;;;;;;1.10;1.00;;;5.80;99.90;5.60;101559.00;;;;4963360;28;112822;-65
2021/10/01 00:40:40;;;;;;;4.33;2.00;;;5.80;99.90;5.60;101551.00;;;;4958956;28;82684;-65
2021/10/01 00:43:06;;;;;;;2.20;1.23;;;5.80;99.90;5.60;101555.00;;;;4962500;28;83034;-66
2021/10/01 00:45:33;;;;;;;2.57;1.37;;;5.80;99.90;5.60;101546.00;;;;4957973;28;83941;-65
2021/10/01 00:47:58;;;;;;;0.80;0.80;;;5.80;99.90;5.60;101554.00;;;;4962724;28;88648;-66
2021/10/01 00:50:24;;;;;;;2.13;1.30;;;5.70;99.90;5.60;101552.00;;;;4962891;28;82687;-65
2021/10/01 00:52:51;;;;;;;1.30;1.17;;;5.70;99.90;5.60;101549.00;;;;4972524;28;83169;-66
2021/10/01 00:55:17;;;;;;;1.33;1.00;;;5.70;99.90;5.60;101546.00;;;;4943100;28;90428;-66
2021/10/01 00:57:43;;;;;;;1.67;1.20;;;5.70;99.90;5.50;101540.00;;;;4964560;28;108128;-65
2021/10/01 01:00:21;;;;;;;1.27;1.10;;;5.70;99.90;5.50;101547.00;;;;4960454;28;110846;-66
2021/10/01 01:02:47;;;;;;;1.53;1.10;;;6.10;99.90;5.50;101546.00;;;;4970797;28;81649;-66
2021/10/01 01:05:13;;;;;;;1.90;1.07;;;5.70;99.90;5.50;101541.00;;;;4972230;28;113921;-66
2021/10/01 01:08:02;;;;;;;3.10;1.30;;;5.70;99.90;5.50;101541.00;;;;4952002;28;112590;-66
2021/10/01 01:10:52;;;;;;;1.00;0.83;;;5.70;99.90;5.50;101546.00;;;;4961271;28;86169;-66
2021/10/01 01:13:31;;;;;;;1.63;1.20;;;5.60;99.90;5.40;101542.00;;;;4953898;28;90885;-66
2021/10/01 01:16:07;;;;;;;1.30;1.10;;;5.70;99.90;5.40;101541.00;;;;4962366;28;96039;-65
2021/10/01 01:18:41;;;;;;;1.03;0.97;;;5.60;99.90;5.40;101538.00;;;;4944647;28;82743;-65
2021/10/01 01:21:15;;;;;;;1.20;1.10;;;5.60;99.90;5.40;101531.00;;;;4957331;28;95106;-65
2021/10/01 01:24:13;;;;;;;2.43;1.40;;;5.60;99.90;5.30;101528.00;;;;4969743;28;83055;-66
2021/10/01 01:27:15;;;;;;;3.23;1.20;;;5.50;99.90;5.30;101524.00;;;;4959594;28;82791;-66
2021/10/01 01:30:05;;;;;;;1.20;1.10;;;5.50;99.90;5.30;101517.00;;;;4960523;28;89309;-66
2021/10/01 01:32:33;;;;;;;1.60;1.20;;;5.50;99.90;5.30;101522.00;;;;4964169;28;82733;-66
2021/10/01 01:35:08;;;;;;;3.60;1.17;;;5.50;99.90;5.20;101516.00;;;;4945244;28;90669;-66
2021/10/01 01:37:42;;;;;;;0.97;0.97;;;5.50;99.90;5.20;101517.00;;;;4942793;28;83730;-66
2021/10/01 01:40:11;;;;;;;2.00;1.37;;;5.40;99.90;5.20;101509.00;;;;4959668;28;84235;-66
2021/10/01 01:42:42;;;;;;;8.80;1.23;;;5.40;99.90;5.20;101506.00;;;;4957075;28;82750;-66
2021/10/01 01:45:11;;;;;;;2.50;1.40;;;5.40;99.90;5.20;101503.00;;;;4962474;28;82617;-66
2021/10/01 01:47:39;;;;;;;0.83;0.73;;;5.40;99.90;5.20;101507.00;;;;4963791;28;82852;-66
2021/10/01 01:50:07;;;;;;;1.50;1.37;;;5.40;99.90;5.10;101502.00;;;;4958345;28;84002;-66
2021/10/01 01:52:35;;;;;;;0.90;0.90;;;5.30;99.90;5.10;101503.00;;;;4964053;28;97040;-66
2021/10/01 01:55:03;;;;;;;0.73;0.70;;;5.30;99.90;5.10;101515.00;;;;4960617;28;96564;-66
2021/10/01 01:57:30;;;;;;;1.03;0.97;;;5.30;99.90;5.10;101506.00;;;;4967963;28;84298;-66
2021/10/01 01:59:57;;;;;;;1.50;1.07;;;5.30;99.90;5.10;101513.00;;;;4951645;28;89574;-66
2021/10/01 02:02:25;;;;;;;1.30;1.13;;;5.30;99.90;5.10;101506.00;;;;4962997;28;83626;-66
2021/10/01 02:04:53;;;;;;;1.20;1.17;;;5.30;99.90;5.00;101494.00;;;;4961061;28;104211;-66
2021/10/01 02:07:20;;;;;;;1.07;0.97;;;5.20;99.90;5.00;101497.00;;;;4972328;28;112939;-66
2021/10/01 02:09:47;;;;;;;3.87;1.30;;;5.20;99.90;5.00;101504.00;;;;4960797;28;113758;-66
2021/10/01 02:12:15;;;;;;;1.53;1.33;;;5.20;99.90;5.00;101497.00;;;;4955004;28;109288;-66
2021/10/01 02:14:47;;;;;;;1.23;1.10;;;5.20;99.90;5.00;101508.00;;;;4959184;28;107590;-66
2021/10/01 02:17:14;;;;;;;1.93;1.20;;;5.20;99.90;5.00;101502.00;;;;4950237;28;82979;-66
2021/10/01 02:19:46;;;;;;;1.40;0.90;;;5.20;99.90;5.00;101495.00;;;;4976376;28;94407;-66
2021/10/01 02:22:15;;;;;;;1.33;1.20;;;5.20;99.90;5.00;101506.00;;;;4956769;28;82586;-66
2021/10/01 02:24:42;;;;;;;0.97;0.87;;;5.10;99.90;4.90;101495.00;;;;4965043;28;93854;-66
2021/10/01 02:27:26;;;;;;;1.03;0.93;;;5.20;99.90;4.90;101489.00;;;;4956931;28;84410;-66
2021/10/01 02:30:03;;;;;;;1.57;1.10;;;5.20;99.90;4.90;101486.00;;;;4958951;28;83048;-66
2021/10/01 02:32:36;;;;;;;1.57;1.43;;;5.20;99.90;4.90;101482.00;;;;4975049;28;82832;-67
2021/10/01 02:35:05;;;;;;;1.67;1.57;;;5.10;99.90;4.90;101494.00;;;;4944843;28;94404;-66
2021/10/01 02:37:32;;;;;;;1.03;1.00;;;5.10;99.90;4.90;101489.00;;;;4963128;28;83213;-66
2021/10/01 02:39:59;;;;;;;0.83;0.80;;;5.10;99.90;4.80;101481.00;;;;4967447;28;82695;-66
2021/10/01 02:42:27;;;;;;;1.10;0.93;;;5.00;99.90;4.80;101482.00;;;;4975755;28;82644;-66
2021/10/01 02:44:53;;;;;;;0.90;0.80;;;5.00;99.90;4.80;101494.00;;;;4978010;28;81820;-66
2021/10/01 02:47:20;;;;;;;1.00;0.80;;;5.00;99.90;4.80;101489.00;;;;4976013;28;84077;-66
2021/10/01 02:49:47;;;;;;;1.30;1.20;;;4.90;99.90;4.70;101498.00;;;;4978357;28;83332;-66
2021/10/01 02:52:29;;;;;;;1.20;1.10;;;4.90;99.90;4.70;101486.00;;;;4971412;28;111478;-66
2021/10/01 02:55:21;;;;;;;1.27;1.17;;;4.90;99.90;4.70;101476.00;;;;4960110;28;82534;-67
2021/10/01 02:57:56;;;;;;;1.13;1.00;;;4.90;99.90;4.60;101464.00;;;;4946186;28;83768;-66
2021/10/01 03:00:22;;;;;;;1.47;0.90;;;4.90;99.90;4.60;101473.00;;;;4961316;28;82653;-66
2021/10/01 03:02:49;;;;;;;1.23;1.13;;;4.80;99.90;4.60;101470.00;;;;4976761;28;111490;-66
2021/10/01 03:05:17;;;;;;;2.57;1.10;;;4.80;99.90;4.60;101470.00;;;;4960011;28;108906;-66
2021/10/01 03:07:44;;;;;;;1.93;1.30;;;4.80;99.90;4.50;101468.00;;;;4942956;28;112453;-66
2021/10/01 03:10:11;;;;;;;1.93;0.57;;;4.70;99.90;4.50;101477.00;;;;4940617;28;89990;-66
2021/10/01 03:12:39;;;;;;;1.20;0.97;;;4.70;99.90;4.50;101460.00;;;;4969004;28;82783;-66
2021/10/01 03:15:06;;;;;;;0.90;0.90;;;4.70;99.90;4.40;101474.00;;;;4959304;28;82819;-67
2021/10/01 03:17:33;;;;;;;2.77;1.53;;;4.70;99.90;4.40;101470.00;;;;4946867;28;83614;-66
2021/10/01 03:20:00;;;;;;;3.07;1.30;;;4.60;99.90;4.30;101481.00;;;;4942050;28;112941;-66
2021/10/01 03:22:31;;;;;;;1.63;1.37;;;4.60;99.90;4.30;101473.00;;;;4961554;28;82890;-66
2021/10/01 03:24:59;;;;;;;1.87;1.33;;;4.60;99.90;4.30;101483.00;;;;4943967;28;82684;-66
2021/10/01 03:27:28;;;;;;;1.23;1.13;;;4.50;99.90;4.30;101481.00;;;;4970944;28;82802;-66
2021/10/01 03:29:59;;;;;;;1.33;0.70;;;4.50;99.90;4.30;101464.00;;;;4960710;28;83637;-66
2021/10/01 03:32:26;;;;;;;1.67;1.37;;;4.50;99.90;4.30;101463.00;;;;4969347;28;82784;-66
2021/10/01 03:34:55;;;;;;;2.40;1.30;;;4.50;99.90;4.30;101470.00;;;;4949781;28;82081;-66
2021/10/01 03:37:21;;;;;;;1.20;1.10;;;4.50;99.90;4.20;101460.00;;;;4955448;28;113082;-67
2021/10/01 03:40:12;;;;;;;2.27;1.10;;;4.40;99.90;4.20;101458.00;;;;4957905;28;83892;-66
2021/10/01 03:42:39;;;;;;;2.20;1.30;;;4.50;99.90;4.20;101456.00;;;;4965932;28;83590;-66
2021/10/01 03:45:08;;;;;;;2.63;1.13;;;4.40;99.90;4.20;101459.00;;;;4959456;28;82701;-66
2021/10/01 03:47:34;;;;;;;1.20;1.03;;;4.40;99.90;4.20;101451.00;;;;4971267;28;82816;-66
2021/10/01 03:50:00;;;;;;;3.03;1.10;;;4.40;99.90;4.20;101456.00;;;;4975388;28;93614;-66
2021/10/01 03:52:26;;;;;;;1.20;1.10;;;4.40;99.90;4.10;101450.00;;;;4965394;28;93742;-66
2021/10/01 03:54:52;;;;;;;2.43;1.73;;;4.40;99.90;4.20;101451.00;;;;4976018;28;103661;-67
2021/10/01 03:57:18;;;;;;;2.00;1.20;;;4.40;99.90;4.20;101448.00;;;;4979038;28;83713;-68
2021/10/01 03:59:44;;;;;;;0.83;0.83;;;4.30;99.90;4.10;101450.00;;;;4978925;28;90974;-66
2021/10/01 04:02:10;;;;;;;1.20;1.10;;;4.40;99.90;4.10;101447.00;;;;4966775;28;82857;-67
2021/10/01 04:04:36;;;;;;;1.33;1.23;;;4.40;99.90;4.10;101452.00;;;;4958197;28;109209;-66
2021/10/01 04:07:02;;;;;;;3.00;1.57;;;4.40;99.90;4.10;101448.00;;;;4958045;28;112133;-67
2021/10/01 04:09:28;;;;;;;1.30;1.20;;;4.30;99.90;4.10;101452.00;;;;4939718;28;96822;-67
2021/10/01 04:11:57;;;;;;;1.90;1.23;;;4.30;99.90;4.10;101452.00;;;;4958079;28;108533;-67
2021/10/01 04:14:24;;;;;;;3.40;1.27;;;4.30;99.90;4.10;101447.00;;;;4958627;28;82738;-67
2021/10/01 04:16:50;;;;;;;1.50;1.40;;;4.30;99.90;4.10;101431.00;;;;4968456;28;83131;-67
2021/10/01 04:19:17;;;;;;;2.80;1.43;;;4.30;99.90;4.10;101436.00;;;;4958640;28;93392;-67
2021/10/01 04:21:44;;;;;;;1.13;1.03;;;4.30;99.90;4.10;101434.00;;;;4963864;28;110112;-67
2021/10/01 04:24:10;;;;;;;1.40;1.30;;;4.30;99.90;4.00;101434.00;;;;4966220;28;83692;-67
2021/10/01 04:26:36;;;;;;;1.33;1.23;;;4.30;99.90;4.10;101432.00;;;;4959015;28;84179;-67
2021/10/01 04:29:03;;;;;;;1.17;1.00;;;4.30;99.90;4.10;101424.00;;;;4958291;28;83381;-67
2021/10/01 04:31:29;;;;;;;1.03;0.93;;;4.30;99.90;4.00;101429.00;;;;4957425;28;109843;-67
2021/10/01 04:33:54;;;;;;;1.30;1.20;;;4.40;99.90;4.00;101422.00;;;;4959480;28;82723;-67
2021/10/01 04:36:22;;;;;;;1.43;1.23;;;4.30;99.90;4.00;101423.00;;;;4966018;28;83435;-67
2021/10/01 04:38:48;;;;;;;1.30;1.20;;;4.20;99.90;4.00;101406.00;;;;4978222;28;83795;-67
2021/10/01 04:41:14;;;;;;;1.07;1.00;;;4.20;99.90;4.00;101415.00;;;;4977711;28;87188;-67
2021/10/01 04:43:40;;;;;;;2.03;1.37;;;4.20;99.90;4.00;101410.00;;;;4964834;28;99466;-68
2021/10/01 04:46:08;;;;;;;3.30;1.57;;;4.10;99.90;4.00;101402.00;;;;4945747;28;83363;-67
2021/10/01 04:48:33;;;;;;;1.63;1.43;;;4.20;99.90;4.00;101404.00;;;;4977809;28;97179;-67
2021/10/01 04:50:59;;;;;;;2.03;1.37;;;4.20;99.90;4.00;101410.00;;;;4959980;28;110160;-67
2021/10/01 04:53:25;;;;;;;1.50;1.07;;;4.20;99.90;4.00;101412.00;;;;4964182;28;110016;-67
2021/10/01 04:55:50;;;;;;;1.33;1.23;;;4.10;99.90;4.00;101413.00;;;;4974817;28;113921;-67
2021/10/01 04:58:16;;;;;;;1.90;1.17;;;4.20;99.90;4.00;101416.00;;;;4970991;28;113528;-67
2021/10/01 05:00:42;;;;;;;2.47;1.63;;;4.10;99.90;4.00;101413.00;;;;4960755;28;82691;-67
2021/10/01 05:03:08;;;;;;;1.90;1.43;;;4.20;99.90;4.00;101410.00;;;;4956885;28;90448;-66
2021/10/01 05:05:33;;;;;;;5.77;1.97;;;4.20;99.90;4.00;101414.00;;;;4957804;28;108005;-66
2021/10/01 05:08:03;;;;;;;2.33;1.50;;;4.20;99.90;4.00;101413.00;;;;4977577;28;98290;-66
2021/10/01 05:10:28;;;;;;;2.33;1.80;;;4.20;99.90;4.00;101406.00;;;;4976269;28;83040;-66
2021/10/01 05:12:54;;;;;;;2.00;1.70;;;4.20;99.90;4.00;101416.00;;;;4967139;28;109174;-66
2021/10/01 05:15:20;;;;;;;2.03;1.83;;;4.20;99.90;3.90;101408.00;;;;4959380;28;112973;-67
2021/10/01 05:17:46;;;;;;;1.30;1.20;;;4.20;99.90;3.90;101423.00;;;;4976423;28;83575;-66
2021/10/01 05:20:13;;;;;;;2.80;1.73;;;4.10;99.90;4.00;101417.00;;;;4977012;28;83700;-66
2021/10/01 05:22:40;;;;;;;2.17;1.43;;;4.20;99.90;4.00;101416.00;;;;4975210;28;82836;-66
2021/10/01 05:25:07;;;;;;;2.47;1.50;;;4.20;99.90;4.00;101418.00;;;;4975947;28;83969;-66
2021/10/01 05:27:33;;;;;;;1.50;1.40;;;4.20;99.90;4.00;101407.00;;;;4959771;28;83628;-66
2021/10/01 05:29:59;;;;;;;1.00;1.00;;;4.20;99.90;4.10;101421.00;;;;4981964;28;84520;-66
2021/10/01 05:32:25;;;;;;;1.03;0.93;;;4.30;99.90;4.10;101405.00;;;;4956656;28;82673;-65
2021/10/01 05:34:52;;;;;;;2.10;1.20;;;4.30;99.90;4.20;101410.00;;;;4960938;28;82949;-66
2021/10/01 05:37:19;;;;;;;1.30;1.20;;;4.40;99.90;4.30;101397.00;;;;4959965;28;82980;-66
2021/10/01 05:39:45;;;;;;;3.73;1.83;;;4.50;99.90;4.50;101406.00;;;;4958111;28;92586;-66
2021/10/01 05:42:11;;;;;;;3.77;1.77;;;4.60;99.90;4.50;101414.00;;;;4962352;28;86770;-66
2021/10/01 05:44:36;;;;;;;1.73;1.57;;;4.70;99.90;4.60;101406.00;;;;4963375;28;105395;-66
2021/10/01 05:47:05;;;;;;;1.40;1.20;;;4.80;99.90;4.70;101402.00;;;;4957708;28;84202;-66
2021/10/01 05:49:38;;;;;;;2.13;1.63;;;4.90;99.90;4.80;101406.00;;;;4964755;28;83049;-66
2021/10/01 05:52:38;;;;;;;1.37;1.27;;;4.90;99.90;5.00;101402.00;;;;4957862;28;82967;-66
2021/10/01 05:55:05;;;;;;;2.47;1.50;;;5.10;99.90;5.10;101415.00;;;;4958494;28;82351;-66
2021/10/01 05:57:31;;;;;;;2.90;1.30;;;5.30;99.90;5.30;101413.00;;;;4958060;28;83768;-66
2021/10/01 05:59:56;;;;;;;3.17;1.70;;;5.40;99.90;5.50;101408.00;;;;4962559;28;109927;-67
2021/10/01 06:02:22;;;;;;;1.43;1.33;;;5.60;99.90;5.60;101404.00;;;;4946218;28;108240;-66
2021/10/01 06:04:52;;;;;;;2.17;1.50;;;5.70;99.90;5.80;101417.00;;;;4962650;28;83325;-66
2021/10/01 06:07:19;;;;;;;1.07;1.03;;;5.90;99.90;5.90;101415.00;;;;4958217;28;82698;-66
2021/10/01 06:09:45;;;;;;;2.10;1.80;;;6.00;99.90;6.00;101407.00;;;;4957597;28;83739;-66
2021/10/01 06:12:13;;;;;;;1.63;1.50;;;6.10;99.90;6.20;101407.00;;;;4958444;28;95794;-66
2021/10/01 06:14:40;;;;;;;2.07;1.83;;;6.30;99.90;6.30;101408.00;;;;4957043;28;84077;-66
2021/10/01 06:17:07;;;;;;;2.40;1.30;;;6.40;99.90;6.40;101409.00;;;;4940919;28;83350;-67
2021/10/01 06:19:36;;;;;;;3.10;0.93;;;6.50;99.90;6.60;101418.00;;;;4958725;28;82630;-66
2021/10/01 06:22:05;;;;;;;2.27;1.13;;;6.70;99.90;6.70;101409.00;;;;4963277;28;82806;-66
2021/10/01 06:24:31;;;;;;;1.77;0.90;;;6.80;99.90;6.90;101414.00;;;;4942052;28;83259;-66
2021/10/01 06:26:57;;;;;;;2.70;1.33;;;6.90;99.90;7.10;101407.00;;;;4959781;28;108472;-66
2021/10/01 06:29:23;;;;;;;1.43;1.13;;;7.10;99.90;7.20;101410.00;;;;4957880;28;82465;-66
2021/10/01 06:31:49;;;;;;;1.07;0.70;;;7.30;99.90;7.40;101418.00;;;;4958709;28;82956;-66
2021/10/01 06:34:15;;;;;;;1.47;1.37;;;7.40;99.90;7.60;101412.00;;;;4957593;28;97003;-66
2021/10/01 06:36:42;;;;;;;2.00;1.40;;;7.60;99.90;7.90;101418.00;;;;4958478;28;83562;-67
2021/10/01 06:39:09;;;;;;;3.20;1.23;;;7.90;99.90;8.10;101413.00;;;;4959332;28;82979;-66
2021/10/01 06:41:36;;;;;;;0.93;0.90;;;8.10;99.90;8.40;101408.00;;;;4938717;28;83100;-66
2021/10/01 06:44:05;;;;;;;1.53;1.23;;;8.40;99.90;8.70;101413.00;;;;4957070;28;83192;-67
2021/10/01 06:51:47;;;;;;;2.37;1.07;;;9.20;99.90;9.60;101418.00;;;;4958688;28;82431;-67
2021/10/01 08:18:20;;;;;;;1.20;1.10;;;14.40;92.50;14.70;101406.00;;;;4964714;28;82281;-65
2021/10/01 08:19:15;;;;;;;1.73;0.68;;;16.60;73.50;17.00;101387.00;;;;4954839;28;82618;-66
2021/10/01 08:21:41;;;;;;;1.08;0.80;;;16.70;73.10;17.40;101380.00;;;;4958416;28;84014;-65
2021/10/01 08:24:07;;;;;;;0.75;0.75;;;17.10;71.20;17.50;101387.00;;;;4954971;28;111724;-65
2021/10/01 08:26:32;;;;;;;0.50;0.50;;;17.30;69.40;17.60;101375.00;;;;4955728;28;110793;-65
2021/10/01 08:28:58;;;;;;;0.60;0.60;;;17.50;65.90;17.70;101378.00;;;;4954754;28;109307;-65
2021/10/01 08:31:28;;;;;;;1.33;0.73;;;17.50;66.30;17.90;101382.00;;;;4962258;28;90904;-67
2021/10/01 08:33:56;;;;;;;1.45;0.73;;;17.70;65.50;18.00;101380.00;;;;4954576;28;96961;-68
2021/10/01 08:36:21;;;;;;;0.55;0.30;;;17.80;62.10;18.00;101382.00;;;;4957267;28;82853;-68
2021/10/01 08:38:48;;;;;;;1.23;0.80;;;17.90;60.40;18.00;101382.00;;;;4942520;28;82009;-68
2021/10/01 08:41:14;;;;;;;0.38;0.38;;;17.80;59.70;18.10;101381.00;;;;4954909;28;112981;-69
2021/10/01 08:43:42;;;;;;;0.50;0.50;;;17.90;62.00;18.30;101380.00;;;;4961922;28;111871;-68
2021/10/01 08:46:09;;;;;;;6.80;0.98;;;18.10;58.20;18.30;101368.00;;;;4936271;28;83819;-69
2021/10/01 08:48:37;;;;;;;0.70;0.50;;;18.10;57.60;18.30;101375.00;;;;4956297;28;82575;-69
2021/10/01 08:51:06;;;;;;;1.38;0.80;;;18.10;58.30;18.40;101372.00;;;;4955500;28;93447;-70
2021/10/01 08:53:33;;;;;;;0.40;0.40;;;18.20;58.10;18.60;101363.00;;;;4936670;28;82724;-69
2021/10/01 08:56:00;;;;;;;1.80;0.63;;;18.30;58.50;18.80;101365.00;;;;4941281;28;82889;-67
2021/10/01 08:58:27;;;;;;;0.93;0.30;;;18.40;58.00;18.90;101373.00;;;;4962951;28;88774;-67
2021/10/01 09:00:56;;;;;;;0.50;0.40;;;18.70;56.40;19.00;101351.00;;;;4954922;28;82783;-68
2021/10/01 09:03:22;;;;;;;1.10;0.63;;;18.80;55.50;19.00;101368.00;;;;4956121;28;97591;-68
2021/10/01 09:05:48;;;;;;;0.65;0.65;;;18.80;55.50;19.00;101361.00;;;;4955319;28;112287;-68
2021/10/01 09:08:19;;;;;;;0.95;0.50;;;18.90;53.10;19.00;101359.00;;;;4957766;28;82500;-69
2021/10/01 09:11:08;;;;;;;1.55;0.60;;;18.80;53.00;18.90;101355.00;;;;4964177;28;84243;-69
2021/10/01 09:13:34;;;;;;;0.30;0.30;;;18.80;53.10;18.90;101365.00;;;;4958318;28;83616;-69
2021/10/01 09:16:07;;;;;;;1.30;0.40;;;18.70;53.40;19.00;101359.00;;;;4962920;28;82717;-69
2021/10/01 09:18:36;;;;;;;0.38;0.38;;;18.80;53.00;19.00;101357.00;;;;4959348;28;82721;-69
2021/10/01 09:21:17;;;;;;;0.98;0.57;;;18.80;53.20;19.20;101351.00;;;;4958610;28;84042;-69
2021/10/01 09:23:59;;;;;;;0.60;0.40;;;18.90;53.60;19.30;101352.00;;;;4960329;28;96634;-69
2021/10/01 09:26:26;;;;;;;0.47;0.47;;;19.10;52.30;19.40;101352.00;;;;4939963;28;83012;-70
2021/10/01 09:28:57;;;;;;;0.60;0.57;;;19.20;52.60;19.50;101340.00;;;;4963504;28;82011;-70
2021/10/01 09:31:38;;;;;;;0.30;0.20;;;19.40;53.30;19.80;101344.00;;;;4959361;28;83338;-69
2021/10/01 09:34:23;;;;;;;0.50;0.40;;;19.50;53.60;20.00;101344.00;;;;4960060;28;83141;-69
2021/10/01 09:37:02;;;;;;;1.95;0.63;;;19.70;51.40;20.00;101339.00;;;;4958302;28;83624;-70
2021/10/01 09:39:41;;;;;;;0.60;0.38;;;19.80;50.70;19.90;101337.00;;;;4964821;28;82888;-70
2021/10/01 09:42:11;;;;;;;0.60;0.40;;;19.70;50.10;19.90;101343.00;;;;4941594;28;82638;-69
2021/10/01 09:44:47;;;;;;;0.40;0.40;;;19.60;51.00;19.80;101336.00;;;;4964655;28;82899;-68
2021/10/01 09:47:13;;;;;;;0.68;0.40;;;19.60;50.40;19.70;101339.00;;;;4962587;28;82608;-68
2021/10/01 09:49:39;;;;;;;0.60;0.57;;;19.50;50.00;19.60;101340.00;;;;4959049;28;82637;-68
2021/10/01 09:52:06;;;;;;;0.55;0.40;;;19.40;50.30;19.50;101331.00;;;;4958856;28;83722;-68
2021/10/01 09:54:32;;;;;;;1.00;0.60;;;19.40;50.40;19.50;101338.00;;;;4957903;28;82819;-69
2021/10/01 09:57:05;;;;;;;0.50;0.43;;;19.40;51.00;19.60;101331.00;;;;4941877;28;82924;-69
2021/10/01 09:59:34;;;;;;;0.60;0.43;;;19.30;50.80;19.70;101337.00;;;;4964004;28;89438;-69
2021/10/01 10:02:13;;;;;;;0.95;0.50;;;19.40;51.00;19.80;101322.00;;;;4939742;28;83685;-69
2021/10/01 10:04:42;;;;;;;2.42;0.50;;;19.50;51.00;20.00;101325.00;;;;4965157;28;83191;-69
2021/10/01 10:07:27;;;;;;;0.40;0.30;;;19.60;51.50;20.10;101316.00;;;;4965097;28;83480;-69
2021/10/01 10:09:55;;;;;;;4.32;0.70;;;19.80;50.40;20.10;101326.00;;;;4941774;28;84153;-68
2021/10/01 10:12:44;;;;;;;0.30;0.30;;;19.80;49.70;19.80;101329.00;;;;4962737;28;84056;-69
2021/10/01 10:15:18;;;;;;;0.52;0.52;;;19.70;49.40;19.90;101324.00;;;;4964515;28;82786;-69
2021/10/01 10:17:48;;;;;;;0.30;0.30;;;19.60;50.10;20.00;101313.00;;;;4962866;28;110613;-69
2021/10/01 10:20:15;;;;;;;0.45;0.45;;;19.60;50.40;20.10;101329.00;;;;4966404;28;82023;-69
2021/10/01 10:22:40;;;;;;;1.98;0.60;;;19.80;50.00;20.10;101330.00;;;;4957686;28;83131;-69
2021/10/01 10:25:07;;;;;;;0.65;0.57;;;19.70;49.60;20.10;101329.00;;;;4955636;28;108101;-69
2021/10/01 10:27:32;;;;;;;1.70;0.93;;;19.90;49.60;20.20;101318.00;;;;4957079;28;83537;-69
2021/10/01 10:29:58;;;;;;;0.52;0.47;;;19.90;49.70;20.30;101312.00;;;;4959508;28;103953;-70
2021/10/01 10:32:31;;;;;;;0.30;0.30;;;20.00;50.10;20.60;101324.00;;;;4940103;28;83495;-69
2021/10/01 10:35:06;;;;;;;0.40;0.40;;;20.20;50.60;20.80;101308.00;;;;4938655;28;82957;-69
2021/10/01 10:37:48;;;;;;;0.52;0.52;;;20.40;50.00;21.10;101310.00;;;;4957423;28;83834;-70
2021/10/01 10:40:17;;;;;;;0.55;0.55;;;20.60;49.30;21.40;101299.00;;;;4962817;28;82703;-69
2021/10/01 10:42:45;;;;;;;1.42;0.50;;;21.10;49.90;21.50;101296.00;;;;4938729;28;96485;-69
2021/10/01 10:45:20;;;;;;;1.23;0.47;;;21.10;48.00;21.40;101299.00;;;;4940663;28;92868;-70
2021/10/01 10:48:01;;;;;;;0.43;0.40;;;21.10;47.90;21.40;101287.00;;;;4956990;28;82782;-69
2021/10/01 10:50:42;;;;;;;0.45;0.45;;;21.10;48.40;21.60;101289.00;;;;4939167;28;82617;-70
2021/10/01 10:53:14;;;;;;;1.85;0.63;;;21.20;48.80;21.80;101289.00;;;;4938168;28;84822;-71
2021/10/01 10:55:51;;;;;;;0.93;0.60;;;21.30;48.90;22.10;101286.00;;;;4956449;28;84291;-69
2021/10/01 10:58:36;;;;;;;1.30;0.73;;;21.60;48.60;22.10;101285.00;;;;4958001;28;82883;-69
2021/10/01 11:01:21;;;;;;;0.82;0.60;;;21.90;47.00;22.00;101275.00;;;;4938632;28;82673;-69
2021/10/01 11:03:51;;;;;;;0.47;0.30;;;21.70;46.70;21.90;101274.00;;;;4965108;28;83858;-69
2021/10/01 11:06:18;;;;;;;1.25;0.55;;;21.70;46.40;21.80;101268.00;;;;4957789;28;83733;-68
2021/10/01 11:09:13;;;;;;;2.20;0.80;;;21.60;46.70;21.80;101260.00;;;;4956373;28;82670;-69
2021/10/01 11:11:42;;;;;;;0.55;0.55;;;21.70;46.80;21.70;101265.00;;;;4958494;28;82881;-68
2021/10/01 11:14:19;;;;;;;0.35;0.35;;;21.50;46.70;21.80;101264.00;;;;4958694;28;98799;-71
2021/10/01 11:17:15;;;;;;;7.38;0.63;;;21.50;47.60;21.80;101261.00;;;;4957990;28;82666;-70
2021/10/01 11:19:48;;;;;;;0.85;0.65;;;21.50;47.00;21.80;101250.00;;;;4938716;28;87149;-70
2021/10/01 11:22:37;;;;;;;0.52;0.40;;;21.50;46.90;22.00;101241.00;;;;4938450;28;82867;-70
2021/10/01 11:25:17;;;;;;;2.05;0.40;;;21.60;47.10;22.10;101240.00;;;;4927049;28;85311;-70
2021/10/01 11:27:50;;;;;;;0.65;0.63;;;21.70;47.00;22.30;101238.00;;;;4921701;28;84117;-68
2021/10/01 11:30:16;;;;;;;0.30;0.30;;;21.80;47.20;22.40;101234.00;;;;4961962;28;82946;-70
2021/10/01 11:32:42;;;;;;;0.98;0.55;;;22.00;46.20;22.40;101225.00;;;;4959392;28;91056;-69
2021/10/01 11:35:08;;;;;;;0.55;0.55;;;22.20;45.30;22.50;101224.00;;;;4954406;28;113337;-69
2021/10/01 11:37:43;;;;;;;0.88;0.47;;;22.20;45.90;22.60;101236.00;;;;4933013;28;83758;-70
2021/10/01 11:40:29;;;;;;;0.60;0.40;;;22.20;45.50;22.70;101224.00;;;;4944495;28;82941;-69
2021/10/01 11:42:58;;;;;;;0.40;0.40;;;22.40;45.30;22.90;101236.00;;;;4948010;28;94405;-69
2021/10/01 11:45:34;;;;;;;2.22;0.40;;;22.50;44.40;22.70;101229.00;;;;4955635;28;97053;-69
2021/10/01 11:48:07;;;;;;;0.30;0.30;;;22.40;42.90;22.70;101213.00;;;;4957763;28;84851;-69
2021/10/01 11:50:49;;;;;;;0.73;0.40;;;22.30;43.40;22.80;101212.00;;;;4938438;28;82882;-69
2021/10/01 11:53:25;;;;;;;0.35;0.35;;;22.40;43.30;22.80;101215.00;;;;4941837;28;82835;-69
2021/10/01 11:56:03;;;;;;;0.32;0.30;;;22.50;41.90;22.60;101206.00;;;;4960942;28;90589;-69
2021/10/01 11:58:32;;;;;;;0.32;0.32;;;22.40;40.80;22.50;101199.00;;;;4956435;28;82884;-69
2021/10/01 12:01:28;;;;;;;1.70;0.70;;;22.30;40.40;22.50;101196.00;;;;4960338;28;95704;-68
2021/10/01 12:03:56;;;;;;;0.60;0.50;;;22.20;41.00;22.70;101192.00;;;;4930553;28;82201;-71
2021/10/01 12:06:35;;;;;;;0.50;0.20;;;22.30;41.30;22.90;101187.00;;;;4955931;28;83643;-71
2021/10/01 12:09:08;;;;;;;0.40;0.38;;;22.40;41.50;22.90;101182.00;;;;4955747;28;83537;-70
2021/10/01 12:11:40;;;;;;;0.52;0.30;;;22.60;39.90;22.90;101191.00;;;;4955530;28;88441;-71
2021/10/01 12:14:15;;;;;;;0.52;0.38;;;22.60;39.90;22.80;101174.00;;;;4937451;28;94988;-69
2021/10/01 12:16:55;;;;;;;0.40;0.30;;;22.50;39.10;22.70;101177.00;;;;4956884;28;82922;-71
2021/10/01 12:19:27;;;;;;;0.20;0.20;;;22.40;40.20;22.80;101180.00;;;;4961653;28;83869;-70
2021/10/01 12:22:16;;;;;;;0.52;0.38;;;22.40;39.90;22.80;101164.00;;;;4958537;28;82634;-70
2021/10/01 12:24:43;;;;;;;1.33;0.38;;;22.80;39.80;22.70;101165.00;;;;4938626;28;82714;-70
2021/10/01 12:27:09;;;;;;;0.70;0.30;;;22.50;38.50;22.70;101155.00;;;;4955922;28;82699;-71
2021/10/01 12:29:48;;;;;;;0.20;0.20;;;22.40;39.10;22.80;101157.00;;;;4945751;28;111045;-70
2021/10/01 12:32:15;;;;;;;0.30;0.30;;;22.40;40.00;22.90;101162.00;;;;4938618;28;82878;-70
2021/10/01 12:34:50;;;;;;;8.55;0.40;;;22.50;40.10;22.90;101148.00;;;;4956658;28;91050;-71
2021/10/01 12:37:21;;;;;;;2.40;0.50;;;22.50;39.60;22.70;101145.00;;;;4956254;28;84647;-70